Time;durP1;ratioP1;P1;durP2;ratioP2;P2;SDS_P1;SDS_P2;PMS_P1;PMS_P2;Temp;Humidity;BMP_temperature;BMP_pressure;BME280_temperature;BME280_humidity;BME280_pressure;Samples;Min_cycle;Max_cycle;Signal;HPM_P1;HPM_P2
2022/01/23 00:01:49;;;;;;;6.25;2.78;;;;;;;;;;5074630;28;20099;-70
2022/01/23 00:04:17;;;;;;;4.55;2.20;;;;;;;;;;5073052;28;20032;-66
2022/01/23 00:06:45;;;;;;;6.85;3.00;;;;;;;;;;5074596;28;20383;-66
2022/01/23 00:09:12;;;;;;;7.72;3.15;;;;;;;;;;5073915;28;20127;-65
2022/01/23 00:11:45;;;;;;;7.57;2.70;;;;;;;;;;5073969;28;20035;-69
2022/01/23 00:19:39;;;;;;;5.60;2.47;;;;;;;;;;5074283;28;20086;-69
2022/01/23 00:22:08;;;;;;;7.30;2.50;;;;;;;;;;5074168;28;20024;-70
2022/01/23 00:32:49;;;;;;;7.18;3.33;;;;;;;;;;5072036;28;20040;-64
2022/01/23 00:35:15;;;;;;;7.95;2.65;;;;;;;;;;5073990;28;20024;-64
2022/01/23 00:37:41;;;;;;;7.53;3.15;;;;;;;;;;5073544;28;20521;-65
2022/01/23 00:40:07;;;;;;;8.55;3.00;;;;;;;;;;5073522;28;20496;-65
2022/01/23 00:42:34;;;;;;;5.28;2.60;;;;;;;;;;5072579;28;20048;-64
2022/01/23 00:47:39;;;;;;;5.72;2.80;;;;;;;;;;5073324;28;20032;-66
2022/01/23 00:50:05;;;;;;;7.28;2.78;;;;;;;;;;5071990;28;20037;-65
2022/01/23 00:52:30;;;;;;;10.23;3.80;;;;;;;;;;5073511;28;20131;-66
2022/01/23 00:54:57;;;;;;;7.07;2.70;;;;;;;;;;5072153;28;20108;-65
2022/01/23 00:57:23;;;;;;;7.15;2.30;;;;;;;;;;5072159;28;20530;-66
2022/01/23 00:59:49;;;;;;;6.32;2.80;;;;;;;;;;5071849;28;20128;-65
2022/01/23 01:02:14;;;;;;;4.75;2.00;;;;;;;;;;5071357;28;20425;-72
2022/01/23 01:04:40;;;;;;;6.78;2.30;;;;;;;;;;5071760;28;20028;-67
2022/01/23 01:07:06;;;;;;;4.78;2.40;;;;;;;;;;5071755;28;20040;-67
2022/01/23 01:09:32;;;;;;;8.20;2.60;;;;;;;;;;5070886;28;20032;-66
2022/01/23 01:12:06;;;;;;;5.85;2.67;;;;;;;;;;5071558;28;20059;-64
2022/01/23 01:17:38;;;;;;;6.97;2.10;;;;;;;;;;5072278;28;20107;-66
2022/01/23 01:31:09;;;;;;;5.53;2.45;;;;;;;;;;5071352;28;20044;-64
2022/01/23 01:34:23;;;;;;;5.13;2.55;;;;;;;;;;5072637;28;20041;-65
2022/01/23 01:36:45;;;;;;;5.15;2.58;;;;;;;;;;5060608;28;20047;-64
2022/01/23 01:39:11;;;;;;;6.00;2.88;;;;;;;;;;5070737;28;20055;-66
2022/01/23 01:41:39;;;;;;;4.05;2.10;;;;;;;;;;5071175;28;20020;-65
2022/01/23 01:44:06;;;;;;;5.93;3.05;;;;;;;;;;5071501;28;20040;-70
2022/01/23 01:47:07;;;;;;;4.03;2.33;;;;;;;;;;5010259;28;20038;-67
2022/01/23 01:49:42;;;;;;;4.97;2.13;;;;;;;;;;5059135;28;20083;-69
2022/01/23 01:52:09;;;;;;;4.35;2.28;;;;;;;;;;5071134;28;20449;-65
2022/01/23 01:54:34;;;;;;;3.42;2.17;;;;;;;;;;5070252;28;20086;-69
2022/01/23 01:57:07;;;;;;;5.07;2.30;;;;;;;;;;5071019;28;20041;-67
2022/01/23 02:03:08;;;;;;;4.93;2.20;;;;;;;;;;5071908;28;20033;-73
2022/01/23 02:08:38;;;;;;;5.15;2.35;;;;;;;;;;5070131;28;20036;-64
2022/01/23 02:17:16;;;;;;;6.38;2.30;;;;;;;;;;5070147;28;20063;-64
2022/01/23 02:53:17;;;;;;;4.82;2.05;;;;;;;;;;5070033;28;20033;-66
2022/01/23 02:55:41;;;;;;;3.67;1.70;;;;;;;;;;5069871;28;20068;-64
2022/01/23 02:58:10;;;;;;;3.47;1.65;;;;;;;;;;5070254;28;20028;-64
2022/01/23 03:00:48;;;;;;;2.90;1.63;;;;;;;;;;5063108;28;20024;-66
2022/01/23 03:03:38;;;;;;;4.43;2.17;;;;;;;;;;5050809;28;20446;-65
2022/01/23 03:30:13;;;;;;;2.40;1.50;;;;;;;;;;5082742;28;20551;-65
2022/01/23 03:32:44;;;;;;;2.92;1.60;;;;;;;;;;5049606;28;20472;-65
2022/01/23 03:35:09;;;;;;;3.08;1.70;;;;;;;;;;5051334;28;20083;-66
2022/01/23 03:37:35;;;;;;;3.70;1.83;;;;;;;;;;5050208;28;20661;-64
2022/01/23 03:40:02;;;;;;;4.90;1.85;;;;;;;;;;5050662;28;20040;-67
2022/01/23 03:42:29;;;;;;;3.38;1.90;;;;;;;;;;5083162;28;20025;-65
2022/01/23 03:47:53;;;;;;;3.70;2.00;;;;;;;;;;5039071;28;20051;-68
2022/01/23 03:50:19;;;;;;;4.72;1.98;;;;;;;;;;5049358;28;20044;-71
2022/01/23 03:52:52;;;;;;;4.20;2.10;;;;;;;;;;5083042;28;20020;-68
2022/01/23 03:55:18;;;;;;;7.60;2.45;;;;;;;;;;5083231;28;20072;-70
2022/01/23 03:57:44;;;;;;;3.88;2.42;;;;;;;;;;5083085;28;20060;-66
2022/01/23 04:00:10;;;;;;;2.53;1.90;;;;;;;;;;5049064;28;20037;-67
2022/01/23 04:02:39;;;;;;;4.35;2.25;;;;;;;;;;5054391;28;20036;-70
2022/01/23 04:05:06;;;;;;;4.13;2.10;;;;;;;;;;5052608;28;20037;-65
2022/01/23 04:07:34;;;;;;;2.95;1.63;;;;;;;;;;5086000;28;20436;-66
2022/01/23 04:10:00;;;;;;;4.65;1.90;;;;;;;;;;5054320;28;20041;-66
2022/01/23 05:01:29;;;;;;;5.35;2.08;;;;;;;;;;5073169;28;20036;-68
2022/01/23 05:04:51;;;;;;;4.18;2.38;;;;;;;;;;5072932;28;20495;-65
2022/01/23 05:07:05;;;;;;;3.58;2.15;;;;;;;;;;5064494;28;20041;-65
2022/01/23 05:09:50;;;;;;;3.92;2.40;;;;;;;;;;5074653;28;20158;-65
2022/01/23 05:12:35;;;;;;;3.03;1.90;;;;;;;;;;5072203;28;20041;-65
2022/01/23 05:15:00;;;;;;;5.28;2.47;;;;;;;;;;5072650;28;20418;-63
2022/01/23 05:17:27;;;;;;;4.28;2.20;;;;;;;;;;5072663;28;20387;-65
2022/01/23 05:19:53;;;;;;;5.78;2.67;;;;;;;;;;5074004;28;20155;-64
2022/01/23 05:27:23;;;;;;;6.20;2.63;;;;;;;;;;5072626;28;20025;-66
2022/01/23 05:29:50;;;;;;;4.47;2.25;;;;;;;;;;5072361;28;20094;-65
2022/01/23 05:32:16;;;;;;;5.82;2.40;;;;;;;;;;5073578;28;20036;-65
2022/01/23 05:34:44;;;;;;;4.72;2.60;;;;;;;;;;5073998;28;20037;-65
2022/01/23 05:37:18;;;;;;;5.53;2.00;;;;;;;;;;5072335;28;20024;-64
2022/01/23 05:39:47;;;;;;;3.58;2.05;;;;;;;;;;5072098;28;20128;-64
2022/01/23 05:42:13;;;;;;;3.50;2.10;;;;;;;;;;5072221;28;20115;-66
2022/01/23 05:44:41;;;;;;;4.03;2.15;;;;;;;;;;5072171;28;20082;-67
2022/01/23 05:47:10;;;;;;;3.38;2.10;;;;;;;;;;5071760;28;20406;-73
2022/01/23 05:49:46;;;;;;;5.25;2.30;;;;;;;;;;5072423;28;20493;-72
2022/01/23 05:52:25;;;;;;;8.77;4.07;;;;;;;;;;5072048;28;20040;-67
2022/01/23 05:55:12;;;;;;;5.13;2.28;;;;;;;;;;5072221;28;20435;-70
2022/01/23 05:57:54;;;;;;;8.32;3.00;;;;;;;;;;5071579;28;20040;-72
2022/01/23 06:00:27;;;;;;;9.93;3.17;;;;;;;;;;5072018;28;20033;-66
2022/01/23 06:02:59;;;;;;;12.57;4.30;;;;;;;;;;5072071;28;20032;-65
2022/01/23 06:05:35;;;;;;;7.15;4.38;;;;;;;;;;5071092;28;20075;-66
2022/01/23 06:08:04;;;;;;;5.30;3.22;;;;;;;;;;5071215;28;20127;-66
2022/01/23 06:10:36;;;;;;;6.63;2.95;;;;;;;;;;5071495;28;20120;-69
2022/01/23 06:13:03;;;;;;;6.38;2.85;;;;;;;;;;5069351;28;20493;-69
2022/01/23 06:15:29;;;;;;;6.85;3.40;;;;;;;;;;5069251;28;20104;-70
2022/01/23 06:17:55;;;;;;;9.82;4.03;;;;;;;;;;5071480;28;20036;-70
2022/01/23 06:20:40;;;;;;;7.47;4.43;;;;;;;;;;5072203;28;20114;-71
2022/01/23 06:23:06;;;;;;;8.55;5.00;;;;;;;;;;5073225;28;20068;-74
2022/01/23 06:25:58;;;;;;;9.35;4.60;;;;;;;;;;5044177;28;20388;-70
2022/01/23 06:29:12;;;;;;;8.00;4.30;;;;;;;;;;5093536;28;20056;-70
2022/01/23 06:31:39;;;;;;;11.68;5.35;;;;;;;;;;5053825;28;20132;-71
2022/01/23 06:34:06;;;;;;;7.35;4.40;;;;;;;;;;5072840;28;20608;-72
2022/01/23 06:36:33;;;;;;;6.35;3.55;;;;;;;;;;5072102;28;20059;-77
2022/01/23 06:39:00;;;;;;;5.55;3.75;;;;;;;;;;5071337;28;20027;-77
2022/01/23 06:41:26;;;;;;;7.90;3.75;;;;;;;;;;5072787;28;20119;-72
2022/01/23 06:44:06;;;;;;;5.75;3.78;;;;;;;;;;5071393;28;20028;-74
2022/01/23 06:46:39;;;;;;;5.60;3.50;;;;;;;;;;5071149;28;20573;-73
2022/01/23 06:49:07;;;;;;;5.68;3.33;;;;;;;;;;5070784;28;20056;-78
2022/01/23 06:51:34;;;;;;;8.75;4.50;;;;;;;;;;5070879;28;20033;-74
2022/01/23 06:54:05;;;;;;;5.07;3.20;;;;;;;;;;5087782;28;20152;-80
2022/01/23 06:56:31;;;;;;;6.00;3.47;;;;;;;;;;5071194;28;20108;-75
2022/01/23 06:58:57;;;;;;;4.53;3.00;;;;;;;;;;5087433;28;20115;-72
2022/01/23 07:01:23;;;;;;;5.35;2.97;;;;;;;;;;5087965;28;20043;-70
2022/01/23 07:04:07;;;;;;;5.05;2.92;;;;;;;;;;5071500;28;20039;-72
2022/01/23 07:06:52;;;;;;;9.77;3.95;;;;;;;;;;5073178;28;20412;-74
2022/01/23 07:09:32;;;;;;;5.20;3.40;;;;;;;;;;5070604;28;20040;-76
2022/01/23 07:12:21;;;;;;;6.07;3.63;;;;;;;;;;5071496;28;20044;-80
2022/01/23 07:15:14;;;;;;;8.52;4.38;;;;;;;;;;5055201;28;20448;-75
2022/01/23 07:17:40;;;;;;;9.35;4.45;;;;;;;;;;5070791;28;20152;-74
2022/01/23 07:20:20;;;;;;;7.65;4.20;;;;;;;;;;5069754;28;20032;-71
2022/01/23 07:22:47;;;;;;;7.93;4.10;;;;;;;;;;5071047;28;20036;-71
2022/01/23 07:25:13;;;;;;;7.70;4.10;;;;;;;;;;5070680;28;20044;-74
2022/01/23 07:27:52;;;;;;;7.85;3.85;;;;;;;;;;5070006;28;20078;-77
2022/01/23 07:31:04;;;;;;;7.22;3.50;;;;;;;;;;5071651;28;20028;-77
2022/01/23 07:33:09;;;;;;;8.00;4.53;;;;;;;;;;5063033;28;20175;-77
2022/01/23 07:35:35;;;;;;;7.90;3.70;;;;;;;;;;5071200;28;20119;-72
2022/01/23 07:38:01;;;;;;;7.82;4.97;;;;;;;;;;5074757;28;20028;-70
2022/01/23 07:40:50;;;;;;;12.55;8.00;;;;;;;;;;5054439;28;20172;-74
2022/01/23 07:43:29;;;;;;;58.57;33.03;;;;;;;;;;5074553;28;20517;-73
2022/01/23 07:46:14;;;;;;;11.43;6.43;;;;;;;;;;5076242;28;20051;-69
2022/01/23 07:49:00;;;;;;;7.95;4.10;;;;;;;;;;5075219;28;20078;-72
2022/01/23 07:51:42;;;;;;;6.45;4.00;;;;;;;;;;5074565;28;20082;-72
2022/01/23 07:54:23;;;;;;;5.95;3.83;;;;;;;;;;5073937;28;20495;-70
2022/01/23 07:57:18;;;;;;;12.13;4.75;;;;;;;;;;5033609;28;20061;-71
2022/01/23 07:59:54;;;;;;;7.75;4.40;;;;;;;;;;5073998;28;20499;-70
2022/01/23 08:02:39;;;;;;;8.60;4.28;;;;;;;;;;5075747;28;20070;-73
2022/01/23 08:05:23;;;;;;;10.70;5.20;;;;;;;;;;5075253;28;20039;-74
2022/01/23 08:08:05;;;;;;;8.95;4.95;;;;;;;;;;5073733;28;20167;-71
2022/01/23 08:10:54;;;;;;;14.50;5.07;;;;;;;;;;5075413;28;20414;-84
2022/01/23 08:13:25;;;;;;;10.02;5.07;;;;;;;;;;5076577;28;20093;-79
2022/01/23 08:15:51;;;;;;;6.43;3.58;;;;;;;;;;5075837;28;20388;-71
2022/01/23 08:18:16;;;;;;;7.07;3.85;;;;;;;;;;5074831;28;20482;-69
2022/01/23 08:20:43;;;;;;;7.38;3.85;;;;;;;;;;5074764;28;20043;-71
2022/01/23 08:23:09;;;;;;;8.82;4.97;;;;;;;;;;5075007;28;20024;-72
2022/01/23 08:25:34;;;;;;;7.95;3.83;;;;;;;;;;5074538;28;20036;-69
2022/01/23 08:28:01;;;;;;;6.75;4.70;;;;;;;;;;5074565;28;20369;-69
2022/01/23 08:30:27;;;;;;;8.88;4.05;;;;;;;;;;5074870;28;20111;-73
2022/01/23 08:32:53;;;;;;;5.88;3.17;;;;;;;;;;5074324;28;20534;-70
2022/01/23 08:35:21;;;;;;;6.43;2.70;;;;;;;;;;5074547;28;20033;-73
2022/01/23 08:37:47;;;;;;;4.50;2.83;;;;;;;;;;5074638;28;20039;-74
2022/01/23 08:40:34;;;;;;;5.95;2.53;;;;;;;;;;5074505;28;20055;-72
2022/01/23 08:43:00;;;;;;;6.15;3.00;;;;;;;;;;5074462;28;20039;-72
2022/01/23 08:45:25;;;;;;;4.45;2.47;;;;;;;;;;5074040;28;20021;-74
2022/01/23 08:47:51;;;;;;;4.70;2.80;;;;;;;;;;5073049;28;20487;-74
2022/01/23 08:50:17;;;;;;;5.20;3.15;;;;;;;;;;5072703;28;20021;-72
2022/01/23 08:52:43;;;;;;;3.88;2.55;;;;;;;;;;5073779;28;20071;-78
2022/01/23 08:55:09;;;;;;;5.07;2.85;;;;;;;;;;5063292;28;20545;-69
2022/01/23 08:57:34;;;;;;;6.38;3.25;;;;;;;;;;5057867;28;20037;-67
2022/01/23 09:00:00;;;;;;;6.90;3.15;;;;;;;;;;5052388;28;20025;-67
2022/01/23 09:02:27;;;;;;;6.10;2.92;;;;;;;;;;5051812;28;20496;-66
2022/01/23 09:04:53;;;;;;;6.55;3.03;;;;;;;;;;5052192;28;20055;-68
2022/01/23 09:07:19;;;;;;;5.95;3.05;;;;;;;;;;5061248;28;20029;-67
2022/01/23 09:09:45;;;;;;;6.13;3.30;;;;;;;;;;5073125;28;20051;-69
2022/01/23 09:14:40;;;;;;;8.60;5.30;;;;;;;;;;5074014;28;20340;-68
2022/01/23 09:17:06;;;;;;;7.40;4.25;;;;;;;;;;5074167;28;20020;-70
2022/01/23 09:19:32;;;;;;;17.00;7.43;;;;;;;;;;5073873;28;20025;-67
2022/01/23 09:21:59;;;;;;;7.50;3.47;;;;;;;;;;5072664;28;20123;-69
2022/01/23 09:24:26;;;;;;;4.22;2.65;;;;;;;;;;5073827;28;20025;-70
2022/01/23 09:27:00;;;;;;;5.38;3.17;;;;;;;;;;5073771;28;20035;-68
2022/01/23 09:29:47;;;;;;;4.03;2.90;;;;;;;;;;5073594;28;20036;-69
2022/01/23 09:32:15;;;;;;;8.18;2.95;;;;;;;;;;5073226;28;20396;-69
2022/01/23 09:34:42;;;;;;;4.70;2.75;;;;;;;;;;5072326;28;20024;-69
2022/01/23 09:37:15;;;;;;;5.20;2.22;;;;;;;;;;5073365;28;20502;-67
2022/01/23 09:39:45;;;;;;;4.68;2.33;;;;;;;;;;5073064;28;20032;-69
2022/01/23 09:42:18;;;;;;;5.28;2.60;;;;;;;;;;5073361;28;20554;-69
2022/01/23 09:44:51;;;;;;;6.13;2.70;;;;;;;;;;5073419;28;20071;-70
2022/01/23 09:47:19;;;;;;;3.53;2.03;;;;;;;;;;5073100;28;20050;-70
2022/01/23 09:49:47;;;;;;;3.15;2.20;;;;;;;;;;5072655;28;20115;-71
2022/01/23 09:52:14;;;;;;;7.03;2.90;;;;;;;;;;5073107;28;20036;-69
2022/01/23 09:54:42;;;;;;;8.10;3.00;;;;;;;;;;5072864;28;20046;-68
2022/01/23 09:57:10;;;;;;;4.15;2.50;;;;;;;;;;5073125;28;20426;-68
2022/01/23 09:59:36;;;;;;;6.57;3.75;;;;;;;;;;5073071;28;20028;-70
2022/01/23 10:02:03;;;;;;;8.93;3.67;;;;;;;;;;5072452;28;20028;-69
2022/01/23 10:04:32;;;;;;;4.32;2.40;;;;;;;;;;5072917;28;20033;-69
2022/01/23 10:06:58;;;;;;;4.10;2.42;;;;;;;;;;5072745;28;20477;-71
2022/01/23 10:09:27;;;;;;;4.03;2.50;;;;;;;;;;5072992;28;20047;-69
2022/01/23 10:11:53;;;;;;;4.80;2.65;;;;;;;;;;5072945;28;20059;-69
2022/01/23 10:14:19;;;;;;;17.25;6.75;;;;;;;;;;5072555;28;20509;-70
2022/01/23 10:16:47;;;;;;;10.68;4.82;;;;;;;;;;5072628;28;20067;-72
2022/01/23 10:19:14;;;;;;;19.90;8.55;;;;;;;;;;5072737;28;20086;-71
2022/01/23 10:21:43;;;;;;;5.88;3.25;;;;;;;;;;5072536;28;20506;-72
2022/01/23 10:24:10;;;;;;;8.63;3.53;;;;;;;;;;5072232;28;20029;-69
2022/01/23 10:26:58;;;;;;;6.70;2.25;;;;;;;;;;5071827;28;20056;-70
2022/01/23 10:29:28;;;;;;;3.63;2.38;;;;;;;;;;5072726;28;20041;-68
2022/01/23 10:32:23;;;;;;;9.18;2.90;;;;;;;;;;5072064;28;20039;-68
2022/01/23 10:34:55;;;;;;;4.75;2.20;;;;;;;;;;5072507;28;20086;-68
2022/01/23 10:37:35;;;;;;;3.47;2.25;;;;;;;;;;5065049;28;20043;-71
2022/01/23 10:40:10;;;;;;;4.50;2.70;;;;;;;;;;5065161;28;20029;-70
2022/01/23 10:48:23;;;;;;;4.68;2.90;;;;;;;;;;5053787;28;20552;-68
2022/01/23 10:50:40;;;;;;;5.65;3.33;;;;;;;;;;5063038;28;20503;-70
2022/01/23 10:53:06;;;;;;;8.18;2.65;;;;;;;;;;5070364;28;20025;-70
2022/01/23 10:55:35;;;;;;;7.72;2.80;;;;;;;;;;5071273;28;20033;-71
2022/01/23 10:58:16;;;;;;;5.55;2.83;;;;;;;;;;5071128;28;20044;-68
2022/01/23 11:00:42;;;;;;;6.38;2.60;;;;;;;;;;5071473;28;20078;-69
2022/01/23 11:03:15;;;;;;;5.30;2.85;;;;;;;;;;5070974;28;20024;-77
2022/01/23 11:05:41;;;;;;;5.03;2.80;;;;;;;;;;5070311;28;20047;-69
2022/01/23 11:08:24;;;;;;;5.00;2.50;;;;;;;;;;5070946;28;20115;-69
2022/01/23 11:11:05;;;;;;;9.82;5.20;;;;;;;;;;5064295;28;20460;-70
2022/01/23 11:19:30;;;;;;;12.55;5.20;;;;;;;;;;5066676;28;20056;-68
2022/01/23 11:21:59;;;;;;;7.30;3.00;;;;;;;;;;5066878;28;20112;-70
2022/01/23 11:24:35;;;;;;;4.30;2.45;;;;;;;;;;5059293;28;20020;-74
2022/01/23 11:27:03;;;;;;;21.00;10.23;;;;;;;;;;5064536;28;20048;-68
2022/01/23 11:29:31;;;;;;;3.30;2.10;;;;;;;;;;5062337;28;20032;-67
2022/01/23 11:31:57;;;;;;;7.38;4.93;;;;;;;;;;5061709;28;20039;-68
2022/01/23 11:34:27;;;;;;;7.47;2.63;;;;;;;;;;5074063;28;20024;-70
2022/01/23 11:36:53;;;;;;;6.50;3.83;;;;;;;;;;5067119;28;20033;-69
2022/01/23 11:39:42;;;;;;;5.43;3.00;;;;;;;;;;5066434;28;20024;-68
2022/01/23 11:53:46;;;;;;;4.03;2.40;;;;;;;;;;5056826;28;20029;-73
2022/01/23 11:56:36;;;;;;;7.85;3.90;;;;;;;;;;5062324;28;20076;-68
2022/01/23 11:59:40;;;;;;;26.50;15.43;;;;;;;;;;5067630;28;20040;-78
2022/01/23 12:02:20;;;;;;;8.80;5.00;;;;;;;;;;5062543;28;20167;-68
2022/01/23 12:07:41;;;;;;;7.97;4.30;;;;;;;;;;5063071;28;20025;-73
2022/01/23 12:10:23;;;;;;;5.88;2.97;;;;;;;;;;5063936;28;20056;-71
2022/01/23 12:12:52;;;;;;;5.38;2.63;;;;;;;;;;5057657;28;20368;-74
2022/01/23 12:18:29;;;;;;;8.65;4.82;;;;;;;;;;5051505;28;20045;-69
2022/01/23 12:21:01;;;;;;;17.95;8.60;;;;;;;;;;5065069;28;20348;-73
2022/01/23 12:23:27;;;;;;;17.83;9.82;;;;;;;;;;5074309;28;20020;-68
2022/01/23 12:25:55;;;;;;;6.35;3.92;;;;;;;;;;5072642;28;20585;-70
2022/01/23 12:28:28;;;;;;;9.85;5.93;;;;;;;;;;5072887;28;20113;-69
2022/01/23 12:30:57;;;;;;;11.50;6.07;;;;;;;;;;5074256;28;20029;-69
2022/01/23 12:33:28;;;;;;;3.08;2.00;;;;;;;;;;5074485;28;20036;-68
2022/01/23 12:35:58;;;;;;;4.40;2.28;;;;;;;;;;5074628;28;20041;-70
2022/01/23 12:38:38;;;;;;;14.57;8.38;;;;;;;;;;5076745;28;20073;-69
2022/01/23 12:41:24;;;;;;;5.13;2.80;;;;;;;;;;5083052;28;20048;-69
2022/01/23 12:44:06;;;;;;;3.75;2.35;;;;;;;;;;5074712;28;20047;-76
2022/01/23 12:46:36;;;;;;;11.93;5.95;;;;;;;;;;5071457;28;20040;-77
2022/01/23 12:49:19;;;;;;;9.02;5.20;;;;;;;;;;5073560;28;20032;-84
2022/01/23 12:51:46;;;;;;;15.90;7.05;;;;;;;;;;5074124;28;20036;-77
2022/01/23 12:54:18;;;;;;;6.22;3.75;;;;;;;;;;5078863;28;20479;-84
2022/01/23 12:56:46;;;;;;;8.57;3.22;;;;;;;;;;5081994;28;20475;-78
2022/01/23 12:59:24;;;;;;;10.35;4.93;;;;;;;;;;5073830;28;20036;-80
2022/01/23 13:01:57;;;;;;;7.57;4.00;;;;;;;;;;5074138;28;20048;-81
2022/01/23 13:04:23;;;;;;;10.27;5.07;;;;;;;;;;5074390;28;20444;-75
2022/01/23 13:09:44;;;;;;;8.75;5.35;;;;;;;;;;5073499;28;20037;-72
2022/01/23 13:12:25;;;;;;;9.27;5.43;;;;;;;;;;5073560;28;20044;-78
2022/01/23 13:15:13;;;;;;;11.68;5.05;;;;;;;;;;5073650;28;20032;-70
2022/01/23 13:31:40;;;;;;;6.63;4.03;;;;;;;;;;5072534;28;20036;-70
2022/01/23 13:34:29;;;;;;;8.25;4.38;;;;;;;;;;5071243;28;20461;-68
2022/01/23 13:37:00;;;;;;;6.00;3.92;;;;;;;;;;5072220;28;20028;-69
2022/01/23 13:39:30;;;;;;;6.47;3.53;;;;;;;;;;5072448;28;20502;-68
2022/01/23 13:42:17;;;;;;;5.50;3.13;;;;;;;;;;5072571;28;20020;-69
2022/01/23 13:51:22;;;;;;;6.50;3.75;;;;;;;;;;5072057;28;20088;-77
2022/01/23 14:02:09;;;;;;;9.57;5.68;;;;;;;;;;5072139;28;20028;-67
2022/01/23 14:04:40;;;;;;;10.98;5.88;;;;;;;;;;5070796;28;20032;-69
2022/01/23 14:07:07;;;;;;;11.50;6.22;;;;;;;;;;5072038;28;20082;-75
2022/01/23 14:09:39;;;;;;;10.60;5.10;;;;;;;;;;5072468;28;20060;-70
2022/01/23 14:12:10;;;;;;;18.55;8.43;;;;;;;;;;5072767;28;20040;-69
2022/01/23 14:14:54;;;;;;;13.50;6.70;;;;;;;;;;5072140;28;20131;-74
2022/01/23 14:17:20;;;;;;;;;;;;;;;;;;5072278;28;20036;-69
2022/01/23 14:20:00;;;;;;;4.18;1.90;;;;;;;;;;5072830;28;19912;-69
2022/01/23 14:22:28;;;;;;;9.68;4.60;;;;;;;;;;5072455;28;20028;-68
2022/01/23 14:25:07;;;;;;;8.70;4.53;;;;;;;;;;5070980;28;20475;-70
2022/01/23 14:27:33;;;;;;;7.15;3.28;;;;;;;;;;5071924;28;20040;-68
2022/01/23 14:30:05;;;;;;;8.02;3.30;;;;;;;;;;5071202;28;20025;-70
2022/01/23 14:32:43;;;;;;;10.77;4.38;;;;;;;;;;5071352;28;20028;-68
2022/01/23 14:35:28;;;;;;;9.30;4.50;;;;;;;;;;5072032;28;20428;-69
2022/01/23 14:38:08;;;;;;;6.35;2.10;;;;;;;;;;5071362;28;20079;-69
2022/01/23 14:40:34;;;;;;;8.55;4.32;;;;;;;;;;5071769;28;20033;-67
2022/01/23 14:43:00;;;;;;;6.90;2.53;;;;;;;;;;5054020;28;20040;-68
2022/01/23 14:45:27;;;;;;;7.15;3.65;;;;;;;;;;5071068;28;20075;-66
2022/01/23 14:47:53;;;;;;;10.25;4.00;;;;;;;;;;5072153;28;20025;-69
2022/01/23 14:50:24;;;;;;;12.80;8.50;;;;;;;;;;5071116;28;20074;-67
2022/01/23 14:52:49;;;;;;;13.27;7.30;;;;;;;;;;5071011;28;20036;-69
2022/01/23 14:55:16;;;;;;;11.82;7.53;;;;;;;;;;5072022;28;20459;-70
2022/01/23 14:57:43;;;;;;;10.55;5.32;;;;;;;;;;5072110;28;20117;-69
2022/01/23 15:00:12;;;;;;;16.30;6.95;;;;;;;;;;5071335;28;20459;-71
2022/01/23 15:02:39;;;;;;;22.65;11.73;;;;;;;;;;5071251;28;20506;-67
2022/01/23 15:05:05;;;;;;;13.95;7.38;;;;;;;;;;5072077;28;20054;-67
2022/01/23 15:07:40;;;;;;;20.55;10.48;;;;;;;;;;5072498;28;20367;-66
2022/01/23 15:10:09;;;;;;;18.63;8.32;;;;;;;;;;5071636;28;20029;-72
2022/01/23 15:12:34;;;;;;;27.20;13.40;;;;;;;;;;5070602;28;20111;-68
2022/01/23 15:15:00;;;;;;;9.95;5.65;;;;;;;;;;5071167;28;20558;-69
2022/01/23 15:17:26;;;;;;;11.93;7.57;;;;;;;;;;5071956;28;20048;-67
2022/01/23 15:19:53;;;;;;;11.85;6.10;;;;;;;;;;5071882;28;20100;-67
2022/01/23 15:22:20;;;;;;;12.38;5.85;;;;;;;;;;5071052;28;20374;-67
2022/01/23 15:24:47;;;;;;;12.00;6.82;;;;;;;;;;5071110;28;20031;-67
2022/01/23 15:27:13;;;;;;;13.00;7.53;;;;;;;;;;5070674;28;20035;-66
2022/01/23 15:29:39;;;;;;;11.70;6.28;;;;;;;;;;5070833;28;20118;-68
2022/01/23 15:32:05;;;;;;;9.20;4.50;;;;;;;;;;5071209;28;20044;-70
2022/01/23 15:34:35;;;;;;;9.00;5.13;;;;;;;;;;5071173;28;20032;-70
2022/01/23 15:37:01;;;;;;;11.43;5.63;;;;;;;;;;5070577;28;20065;-69
2022/01/23 15:39:27;;;;;;;8.02;4.78;;;;;;;;;;5071548;28;20039;-68
2022/01/23 15:41:52;;;;;;;7.65;5.10;;;;;;;;;;5070561;28;20024;-77
2022/01/23 15:44:18;;;;;;;10.73;4.85;;;;;;;;;;5086721;28;20048;-73
2022/01/23 15:46:46;;;;;;;8.73;4.95;;;;;;;;;;5070216;28;20029;-71
2022/01/23 15:49:11;;;;;;;13.63;5.30;;;;;;;;;;5071720;28;20059;-70
2022/01/23 15:51:37;;;;;;;9.32;5.20;;;;;;;;;;5070016;28;20068;-75
2022/01/23 15:54:04;;;;;;;7.97;4.50;;;;;;;;;;5070928;28;20040;-66
2022/01/23 15:56:30;;;;;;;8.68;5.15;;;;;;;;;;5070030;28;20296;-68
2022/01/23 15:58:56;;;;;;;10.85;5.25;;;;;;;;;;5074776;28;20403;-67
2022/01/23 16:01:22;;;;;;;8.55;4.20;;;;;;;;;;5074607;28;20024;-68
2022/01/23 16:03:48;;;;;;;7.63;4.40;;;;;;;;;;5075165;28;20041;-69
2022/01/23 16:06:14;;;;;;;10.20;5.55;;;;;;;;;;5074800;28;20107;-69
2022/01/23 16:08:40;;;;;;;8.55;4.53;;;;;;;;;;5073025;28;20048;-73
2022/01/23 16:11:07;;;;;;;10.07;6.32;;;;;;;;;;5075194;28;20162;-73
2022/01/23 16:13:33;;;;;;;11.65;6.13;;;;;;;;;;5073296;28;20119;-69
2022/01/23 16:15:59;;;;;;;8.95;4.25;;;;;;;;;;5075296;28;20129;-70
2022/01/23 16:18:26;;;;;;;6.88;3.78;;;;;;;;;;5074708;28;20071;-68
2022/01/23 16:20:52;;;;;;;4.53;2.95;;;;;;;;;;5074674;28;20387;-68
2022/01/23 16:23:19;;;;;;;6.22;3.28;;;;;;;;;;5074305;28;20043;-68
2022/01/23 16:25:45;;;;;;;8.23;5.10;;;;;;;;;;5074138;28;20132;-70
2022/01/23 16:28:10;;;;;;;8.23;3.75;;;;;;;;;;5074157;28;20049;-68
2022/01/23 16:30:52;;;;;;;9.23;3.60;;;;;;;;;;5073781;28;20032;-66
2022/01/23 16:33:19;;;;;;;8.13;3.38;;;;;;;;;;5074410;28;20047;-68
2022/01/23 16:35:45;;;;;;;7.30;4.25;;;;;;;;;;5072898;28;20016;-68
2022/01/23 16:38:12;;;;;;;11.20;5.82;;;;;;;;;;5073703;28;20112;-63
2022/01/23 16:40:39;;;;;;;12.77;7.15;;;;;;;;;;5074483;28;20025;-72
2022/01/23 16:43:05;;;;;;;22.30;10.43;;;;;;;;;;5073596;28;20060;-64
2022/01/23 16:45:31;;;;;;;21.52;9.38;;;;;;;;;;5074493;28;20024;-66
2022/01/23 16:47:57;;;;;;;16.67;8.45;;;;;;;;;;5074860;28;20047;-69
2022/01/23 16:50:24;;;;;;;11.88;6.47;;;;;;;;;;5074201;28;20029;-65
2022/01/23 16:52:52;;;;;;;11.07;6.50;;;;;;;;;;5072714;28;20458;-65
2022/01/23 16:55:19;;;;;;;8.35;5.10;;;;;;;;;;5074401;28;20536;-63
2022/01/23 16:57:45;;;;;;;6.55;3.67;;;;;;;;;;5073644;28;20043;-65
2022/01/23 17:00:11;;;;;;;5.82;3.45;;;;;;;;;;5074409;28;20025;-64
2022/01/23 17:02:38;;;;;;;6.78;3.60;;;;;;;;;;5071735;28;20028;-64
2022/01/23 17:05:04;;;;;;;10.23;6.05;;;;;;;;;;5073125;28;20021;-63
2022/01/23 17:07:31;;;;;;;15.02;6.50;;;;;;;;;;5073292;28;20036;-64
2022/01/23 17:09:57;;;;;;;14.23;6.43;;;;;;;;;;5073232;28;20024;-65
2022/01/23 17:12:23;;;;;;;11.38;5.47;;;;;;;;;;5072869;28;20037;-62
2022/01/23 17:14:50;;;;;;;13.00;7.28;;;;;;;;;;5072310;28;20033;-63
2022/01/23 17:17:16;;;;;;;14.18;4.38;;;;;;;;;;5072225;28;20574;-64
2022/01/23 17:19:41;;;;;;;11.35;6.00;;;;;;;;;;5072749;28;20082;-63
2022/01/23 17:22:07;;;;;;;20.83;5.22;;;;;;;;;;5074115;28;20122;-63
2022/01/23 17:24:37;;;;;;;12.85;7.25;;;;;;;;;;5073210;28;20017;-63
2022/01/23 17:27:04;;;;;;;12.27;6.30;;;;;;;;;;5073436;28;20036;-65
2022/01/23 17:29:31;;;;;;;12.35;5.53;;;;;;;;;;5072087;28;20120;-65
2022/01/23 17:31:57;;;;;;;14.20;6.50;;;;;;;;;;5072048;28;20040;-66
2022/01/23 17:34:22;;;;;;;11.55;6.68;;;;;;;;;;5073517;28;20035;-63
2022/01/23 17:36:48;;;;;;;12.48;5.88;;;;;;;;;;5073422;28;20486;-64
2022/01/23 17:39:15;;;;;;;9.10;4.43;;;;;;;;;;5073254;28;20100;-65
2022/01/23 17:41:41;;;;;;;9.10;3.75;;;;;;;;;;5068318;28;20442;-73
2022/01/23 17:44:08;;;;;;;8.57;5.05;;;;;;;;;;5072478;28;20390;-72
2022/01/23 17:46:36;;;;;;;10.57;4.78;;;;;;;;;;5069952;28;20025;-66
2022/01/23 17:49:05;;;;;;;9.65;4.60;;;;;;;;;;5078185;28;20096;-72
2022/01/23 17:51:32;;;;;;;9.35;5.40;;;;;;;;;;5112371;28;20045;-67
2022/01/23 17:54:02;;;;;;;9.23;4.43;;;;;;;;;;5112500;28;20028;-73
2022/01/23 17:56:28;;;;;;;11.93;6.43;;;;;;;;;;5111699;28;20028;-64
2022/01/23 17:58:54;;;;;;;9.10;4.70;;;;;;;;;;5111774;28;20043;-68
2022/01/23 18:01:20;;;;;;;10.20;5.35;;;;;;;;;;5112529;28;20050;-66
2022/01/23 18:03:46;;;;;;;5.93;3.10;;;;;;;;;;5110732;28;20471;-70
2022/01/23 18:06:20;;;;;;;14.40;5.45;;;;;;;;;;5110935;28;20038;-69
2022/01/23 18:08:47;;;;;;;10.60;5.85;;;;;;;;;;5112041;27;20118;-63
2022/01/23 18:11:14;;;;;;;10.23;5.43;;;;;;;;;;5112088;28;20536;-68
2022/01/23 18:13:54;;;;;;;9.65;4.72;;;;;;;;;;5111128;28;20036;-69
2022/01/23 18:16:20;;;;;;;8.98;4.90;;;;;;;;;;5112325;28;20031;-63
2022/01/23 18:18:46;;;;;;;9.45;4.90;;;;;;;;;;5109501;27;20028;-64
2022/01/23 18:21:12;;;;;;;10.95;5.03;;;;;;;;;;5116534;27;20367;-62
2022/01/23 18:23:38;;;;;;;11.77;6.07;;;;;;;;;;5112094;28;20023;-70
2022/01/23 18:26:04;;;;;;;13.10;5.43;;;;;;;;;;5112057;28;20035;-62
2022/01/23 18:28:32;;;;;;;8.63;4.35;;;;;;;;;;5112161;28;20475;-68
2022/01/23 18:30:57;;;;;;;11.88;6.43;;;;;;;;;;5111898;28;20039;-63
2022/01/23 18:33:25;;;;;;;9.95;5.80;;;;;;;;;;5110433;28;20015;-64
2022/01/23 18:35:51;;;;;;;10.45;5.90;;;;;;;;;;5111856;28;20035;-67
2022/01/23 18:38:17;;;;;;;13.15;7.40;;;;;;;;;;5111874;28;20026;-65
2022/01/23 18:40:42;;;;;;;12.82;6.75;;;;;;;;;;5110278;28;20057;-65
2022/01/23 18:43:08;;;;;;;14.00;7.50;;;;;;;;;;5110663;28;20379;-63